EZY40VG ESGG-EGKK
Flight info
| Callsign | EZY40VG |
|---|---|
| Flight time | 1h 46m |
| Altitude | 38000 |
| Route | DETNA3J DETNA N866 AAL DCT KUNAR DCT GREFI DCT LONAM DCT BINBO DCT AKOKO N866 BUKUT P7 BARMI BARMI1G |
| Aircraft | A320/M-SDE3FGHIJ5LRWY/LB1 |
Departure
| Time | 2026-05-04 08:46 |
|---|---|
| Airport | Göteborg Landvetter Airport (ESGG) |
Arrival
| Time | 2026-05-04 10:32 |
|---|---|
| Airport | London Gatwick Airport (EGKK) |
| Time | Latitude | Longitude | Altitude | Speed | Heading |
|---|---|---|---|---|---|
| 2026-05-04 07:57 | 57.67238 | 12.29733 | 514 ft | 0 kts | 116° |
| 2026-05-04 08:33 | 57.67247 | 12.29701 | 513 ft | 2 kts | 116° |
| 2026-05-04 08:33 | 57.67255 | 12.29672 | 513 ft | 3 kts | 107° |
| 2026-05-04 08:35 | 57.67241 | 12.29602 | 513 ft | 0 kts | 26° |
| 2026-05-04 08:40 | 57.67243 | 12.29604 | 513 ft | 0 kts | 25° |
| 2026-05-04 08:40 | 57.67256 | 12.29610 | 513 ft | 4 kts | 15° |
| 2026-05-04 08:40 | 57.67277 | 12.29625 | 513 ft | 4 kts | 23° |
| 2026-05-04 08:41 | 57.67315 | 12.29660 | 514 ft | 3 kts | 26° |
| 2026-05-04 08:41 | 57.67331 | 12.29675 | 514 ft | 5 kts | 25° |
| 2026-05-04 08:41 | 57.67361 | 12.29653 | 514 ft | 6 kts | 306° |
| 2026-05-04 08:41 | 57.67379 | 12.29591 | 514 ft | 5 kts | 296° |
| 2026-05-04 08:42 | 57.67391 | 12.29545 | 514 ft | 3 kts | 295° |
| 2026-05-04 08:42 | 57.67404 | 12.29494 | 514 ft | 5 kts | 295° |
| 2026-05-04 08:42 | 57.67419 | 12.29437 | 514 ft | 4 kts | 296° |
| 2026-05-04 08:42 | 57.67434 | 12.29382 | 514 ft | 5 kts | 297° |
| 2026-05-04 08:43 | 57.67452 | 12.29310 | 514 ft | 7 kts | 293° |
| 2026-05-04 08:43 | 57.67454 | 12.29302 | 514 ft | 0 kts | 291° |
| 2026-05-04 08:43 | 57.67457 | 12.29282 | 514 ft | 5 kts | 283° |
| 2026-05-04 08:44 | 57.67455 | 12.29144 | 513 ft | 14 kts | 260° |
| 2026-05-04 08:44 | 57.67438 | 12.29031 | 512 ft | 5 kts | 232° |
| 2026-05-04 08:46 | 57.63099 | 12.25143 | 2900 ft | 183 kts | 210° |
| 2026-05-04 08:46 | 57.61929 | 12.24107 | 3518 ft | 189 kts | 210° |
| 2026-05-04 08:46 | 57.60682 | 12.22982 | 3890 ft | 212 kts | 211° |
| 2026-05-04 08:46 | 57.59283 | 12.21682 | 4317 ft | 237 kts | 211° |
| 2026-05-04 08:47 | 57.57777 | 12.20145 | 4891 ft | 253 kts | 221° |
| 2026-05-04 08:47 | 57.56732 | 12.17574 | 5779 ft | 251 kts | 251° |
| 2026-05-04 08:47 | 57.56337 | 12.14403 | 6713 ft | 253 kts | 257° |
| 2026-05-04 08:47 | 57.55584 | 12.11410 | 7611 ft | 260 kts | 240° |
| 2026-05-04 08:48 | 57.54601 | 12.08576 | 8568 ft | 262 kts | 239° |
| 2026-05-04 08:48 | 57.53604 | 12.05718 | 9511 ft | 265 kts | 239° |
| 2026-05-04 08:48 | 57.52590 | 12.02803 | 10203 ft | 277 kts | 239° |
| 2026-05-04 08:48 | 57.51508 | 11.99665 | 10569 ft | 297 kts | 239° |
| 2026-05-04 08:49 | 57.50377 | 11.96381 | 11295 ft | 304 kts | 239° |
| 2026-05-04 08:50 | 57.43350 | 11.76086 | 15954 ft | 319 kts | 239° |
| 2026-05-04 08:50 | 57.42142 | 11.72611 | 16669 ft | 321 kts | 239° |
| 2026-05-04 08:51 | 57.40925 | 11.69113 | 17378 ft | 324 kts | 239° |
| 2026-05-04 08:51 | 57.39699 | 11.65589 | 18062 ft | 327 kts | 239° |
| 2026-05-04 08:51 | 57.38472 | 11.62075 | 18663 ft | 330 kts | 239° |
| 2026-05-04 08:51 | 57.37219 | 11.58495 | 19261 ft | 332 kts | 239° |
| 2026-05-04 08:52 | 57.35954 | 11.54883 | 19851 ft | 335 kts | 239° |
| 2026-05-04 08:52 | 57.34678 | 11.51244 | 20435 ft | 338 kts | 239° |
| 2026-05-04 08:52 | 57.33396 | 11.47586 | 21009 ft | 341 kts | 239° |
| 2026-05-04 08:52 | 57.32099 | 11.43896 | 21575 ft | 343 kts | 239° |
| 2026-05-04 08:53 | 57.30788 | 11.40178 | 22135 ft | 346 kts | 239° |
| 2026-05-04 08:54 | 57.21311 | 11.13427 | 25399 ft | 365 kts | 238° |
| 2026-05-04 08:55 | 57.19911 | 11.09503 | 25812 ft | 368 kts | 238° |
| 2026-05-04 08:55 | 57.18496 | 11.05549 | 26215 ft | 371 kts | 238° |
| 2026-05-04 08:55 | 57.17072 | 11.01569 | 26622 ft | 373 kts | 238° |
| 2026-05-04 08:55 | 57.15635 | 10.97561 | 27017 ft | 376 kts | 238° |
| 2026-05-04 08:57 | 57.04906 | 10.69130 | 29622 ft | 396 kts | 237° |
| 2026-05-04 09:01 | 56.82165 | 10.10504 | 34509 ft | 401 kts | 236° |
| 2026-05-04 09:01 | 56.80544 | 10.06365 | 34787 ft | 401 kts | 236° |
| 2026-05-04 09:01 | 56.78916 | 10.02228 | 35053 ft | 402 kts | 236° |
| 2026-05-04 09:01 | 56.77286 | 9.98093 | 35313 ft | 402 kts | 236° |
| 2026-05-04 09:02 | 56.75649 | 9.93954 | 35562 ft | 402 kts | 236° |
| 2026-05-04 09:02 | 56.74009 | 9.89820 | 35809 ft | 403 kts | 236° |
| 2026-05-04 09:02 | 56.72366 | 9.85682 | 36051 ft | 403 kts | 236° |
| 2026-05-04 09:02 | 56.70720 | 9.81537 | 36287 ft | 404 kts | 236° |
| 2026-05-04 09:03 | 56.69074 | 9.77396 | 36538 ft | 404 kts | 236° |
| 2026-05-04 09:03 | 56.67426 | 9.73258 | 36760 ft | 404 kts | 236° |
| 2026-05-04 09:03 | 56.65774 | 9.69123 | 37000 ft | 404 kts | 236° |
| 2026-05-04 09:03 | 56.64117 | 9.64983 | 37224 ft | 405 kts | 236° |
| 2026-05-04 09:04 | 56.62462 | 9.60851 | 37440 ft | 405 kts | 236° |
| 2026-05-04 09:04 | 56.60799 | 9.56703 | 37658 ft | 406 kts | 236° |
| 2026-05-04 09:04 | 56.59137 | 9.52563 | 37848 ft | 406 kts | 236° |
| 2026-05-04 09:05 | 56.55807 | 9.44282 | 37908 ft | 406 kts | 235° |
| 2026-05-04 09:05 | 56.52473 | 9.36039 | 37914 ft | 405 kts | 235° |
| 2026-05-04 09:06 | 56.49137 | 9.27802 | 37937 ft | 406 kts | 235° |
| 2026-05-04 09:08 | 56.35721 | 8.95018 | 37952 ft | 407 kts | 235° |
| 2026-05-04 09:08 | 56.32350 | 8.86821 | 37949 ft | 407 kts | 235° |
| 2026-05-04 09:09 | 56.28964 | 8.78644 | 37954 ft | 407 kts | 235° |
| 2026-05-04 09:09 | 56.25567 | 8.70484 | 37958 ft | 407 kts | 235° |
| 2026-05-04 09:10 | 56.22165 | 8.62340 | 37960 ft | 407 kts | 234° |
| 2026-05-04 09:10 | 56.18761 | 8.54208 | 37966 ft | 407 kts | 234° |
| 2026-05-04 09:11 | 56.15357 | 8.46088 | 37970 ft | 407 kts | 234° |
| 2026-05-04 09:11 | 56.11952 | 8.37980 | 37979 ft | 407 kts | 234° |
| 2026-05-04 09:12 | 56.08538 | 8.29882 | 37980 ft | 407 kts | 234° |
| 2026-05-04 09:14 | 55.94799 | 7.97608 | 38005 ft | 409 kts | 234° |
| 2026-05-04 09:14 | 55.91346 | 7.89555 | 38006 ft | 409 kts | 234° |
| 2026-05-04 09:15 | 55.87908 | 7.81569 | 38006 ft | 409 kts | 234° |
| 2026-05-04 09:15 | 55.84435 | 7.73556 | 38011 ft | 409 kts | 234° |
| 2026-05-04 09:17 | 55.68742 | 7.37607 | 38019 ft | 410 kts | 233° |
| 2026-05-04 09:18 | 55.65250 | 7.29627 | 38023 ft | 410 kts | 233° |
| 2026-05-04 09:18 | 55.61740 | 7.21675 | 38019 ft | 410 kts | 233° |
| 2026-05-04 09:19 | 55.58218 | 7.13738 | 38024 ft | 410 kts | 233° |
| 2026-05-04 09:19 | 55.54690 | 7.05827 | 38022 ft | 410 kts | 233° |
| 2026-05-04 09:20 | 55.51163 | 6.97908 | 38023 ft | 410 kts | 233° |
| 2026-05-04 09:20 | 55.47637 | 6.89999 | 38022 ft | 410 kts | 233° |
| 2026-05-04 09:21 | 55.44094 | 6.82104 | 38027 ft | 410 kts | 233° |
| 2026-05-04 09:21 | 55.40541 | 6.74219 | 38030 ft | 411 kts | 233° |
| 2026-05-04 09:22 | 55.36991 | 6.66352 | 38034 ft | 411 kts | 233° |
| 2026-05-04 09:22 | 55.33459 | 6.58547 | 38035 ft | 411 kts | 233° |
| 2026-05-04 09:23 | 55.29901 | 6.50693 | 38037 ft | 411 kts | 233° |
| 2026-05-04 09:23 | 55.26320 | 6.42867 | 38033 ft | 411 kts | 232° |
| 2026-05-04 09:25 | 55.12593 | 6.12974 | 38040 ft | 412 kts | 232° |
| 2026-05-04 09:26 | 55.08984 | 6.05193 | 38040 ft | 412 kts | 232° |
| 2026-05-04 09:26 | 55.05382 | 5.97419 | 38045 ft | 412 kts | 232° |
| 2026-05-04 09:27 | 55.01762 | 5.89676 | 38043 ft | 412 kts | 232° |
| 2026-05-04 09:27 | 54.97901 | 5.82297 | 38042 ft | 413 kts | 226° |
| 2026-05-04 09:28 | 54.93816 | 5.75284 | 38042 ft | 413 kts | 226° |
| 2026-05-04 09:28 | 54.89745 | 5.68310 | 38041 ft | 413 kts | 226° |
| 2026-05-04 09:29 | 54.85622 | 5.61259 | 38043 ft | 413 kts | 226° |
| 2026-05-04 09:29 | 54.81544 | 5.54322 | 38049 ft | 413 kts | 226° |
| 2026-05-04 09:30 | 54.77430 | 5.47357 | 38049 ft | 413 kts | 225° |
| 2026-05-04 09:30 | 54.73304 | 5.40410 | 38051 ft | 413 kts | 225° |
| 2026-05-04 09:31 | 54.69186 | 5.33471 | 38047 ft | 413 kts | 225° |
| 2026-05-04 09:31 | 54.65067 | 5.26530 | 38047 ft | 413 kts | 225° |
| 2026-05-04 09:32 | 54.60942 | 5.19609 | 38045 ft | 413 kts | 225° |
| 2026-05-04 09:34 | 54.44414 | 4.92112 | 38038 ft | 414 kts | 225° |
| 2026-05-04 09:34 | 54.40262 | 4.85260 | 38034 ft | 414 kts | 225° |
| 2026-05-04 09:35 | 54.36096 | 4.78424 | 38027 ft | 414 kts | 225° |
| 2026-05-04 09:35 | 54.31934 | 4.71594 | 38030 ft | 414 kts | 225° |
| 2026-05-04 09:37 | 54.15228 | 4.44372 | 38035 ft | 415 kts | 224° |
| 2026-05-04 09:38 | 54.11033 | 4.37589 | 38033 ft | 415 kts | 224° |
| 2026-05-04 09:38 | 54.06845 | 4.30823 | 38037 ft | 415 kts | 224° |
| 2026-05-04 09:39 | 54.02643 | 4.24066 | 38034 ft | 415 kts | 224° |
| 2026-05-04 09:39 | 53.98463 | 4.17365 | 38033 ft | 416 kts | 224° |
| 2026-05-04 09:40 | 53.94252 | 4.10632 | 38035 ft | 416 kts | 224° |
| 2026-05-04 09:40 | 53.90031 | 4.03919 | 38037 ft | 416 kts | 224° |
| 2026-05-04 09:42 | 53.72487 | 3.78331 | 38031 ft | 417 kts | 219° |
| 2026-05-04 09:43 | 53.67976 | 3.72169 | 38032 ft | 417 kts | 220° |
| 2026-05-04 09:43 | 53.63475 | 3.65970 | 38032 ft | 417 kts | 220° |
| 2026-05-04 09:44 | 53.58978 | 3.59782 | 38030 ft | 417 kts | 220° |
| 2026-05-04 09:46 | 53.40926 | 3.35233 | 38024 ft | 418 kts | 216° |
| 2026-05-04 09:46 | 53.35845 | 3.30466 | 38026 ft | 419 kts | 208° |
| 2026-05-04 09:47 | 53.30644 | 3.26037 | 38033 ft | 420 kts | 208° |
| 2026-05-04 09:49 | 53.12296 | 3.10478 | 36544 ft | 427 kts | 208° |
| 2026-05-04 09:49 | 53.09655 | 3.08260 | 36009 ft | 423 kts | 208° |
| 2026-05-04 09:49 | 53.07030 | 3.06056 | 35488 ft | 420 kts | 208° |
| 2026-05-04 09:51 | 52.91809 | 2.93328 | 32496 ft | 395 kts | 209° |
| 2026-05-04 09:51 | 52.89370 | 2.91301 | 32064 ft | 389 kts | 209° |
| 2026-05-04 09:51 | 52.86969 | 2.89307 | 31673 ft | 382 kts | 209° |
| 2026-05-04 09:51 | 52.84613 | 2.87344 | 31287 ft | 376 kts | 210° |
| 2026-05-04 09:52 | 52.82294 | 2.85408 | 30911 ft | 370 kts | 210° |
| 2026-05-04 09:52 | 52.80010 | 2.83507 | 30522 ft | 365 kts | 210° |
| 2026-05-04 09:52 | 52.77758 | 2.81641 | 30159 ft | 359 kts | 210° |
| 2026-05-04 09:52 | 52.75541 | 2.79807 | 29744 ft | 354 kts | 210° |
| 2026-05-04 09:53 | 52.73344 | 2.77990 | 29322 ft | 352 kts | 210° |
| 2026-05-04 09:53 | 52.71155 | 2.76182 | 28888 ft | 351 kts | 210° |
| 2026-05-04 09:53 | 52.68994 | 2.74402 | 28478 ft | 351 kts | 209° |
| 2026-05-04 09:53 | 52.66814 | 2.72607 | 28067 ft | 350 kts | 209° |
| 2026-05-04 09:54 | 52.64637 | 2.70815 | 27656 ft | 350 kts | 209° |
| 2026-05-04 09:54 | 52.62462 | 2.69026 | 27259 ft | 349 kts | 209° |
| 2026-05-04 09:54 | 52.60290 | 2.67237 | 26866 ft | 349 kts | 209° |
| 2026-05-04 09:54 | 52.58117 | 2.65450 | 26477 ft | 349 kts | 209° |
| 2026-05-04 09:55 | 52.55945 | 2.63670 | 26106 ft | 348 kts | 209° |
| 2026-05-04 09:55 | 52.53769 | 2.61895 | 26006 ft | 348 kts | 209° |
| 2026-05-04 09:55 | 52.51595 | 2.60122 | 26027 ft | 350 kts | 209° |
| 2026-05-04 09:55 | 52.49416 | 2.58347 | 26028 ft | 350 kts | 209° |
| 2026-05-04 09:56 | 52.47232 | 2.56564 | 26029 ft | 350 kts | 209° |
| 2026-05-04 09:56 | 52.45084 | 2.54811 | 26025 ft | 350 kts | 209° |
| 2026-05-04 09:56 | 52.42903 | 2.53034 | 26025 ft | 350 kts | 209° |
| 2026-05-04 09:56 | 52.40722 | 2.51261 | 26025 ft | 350 kts | 209° |
| 2026-05-04 09:57 | 52.38499 | 2.49456 | 26021 ft | 364 kts | 209° |
| 2026-05-04 09:57 | 52.36202 | 2.47593 | 26026 ft | 372 kts | 209° |
| 2026-05-04 09:57 | 52.33873 | 2.45706 | 26023 ft | 374 kts | 208° |
| 2026-05-04 09:57 | 52.31519 | 2.43797 | 26018 ft | 385 kts | 208° |
| 2026-05-04 09:58 | 52.29079 | 2.41821 | 26018 ft | 397 kts | 208° |
| 2026-05-04 09:58 | 52.26590 | 2.39815 | 26016 ft | 400 kts | 208° |
| 2026-05-04 09:58 | 52.24087 | 2.37803 | 26028 ft | 401 kts | 208° |
| 2026-05-04 10:00 | 52.06518 | 2.23736 | 26026 ft | 402 kts | 208° |
| 2026-05-04 10:00 | 52.04042 | 2.21756 | 26027 ft | 402 kts | 208° |
| 2026-05-04 10:02 | 51.86427 | 2.07760 | 25621 ft | 402 kts | 208° |
| 2026-05-04 10:04 | 51.69020 | 1.94075 | 22289 ft | 390 kts | 207° |
| 2026-05-04 10:04 | 51.66605 | 1.92127 | 21625 ft | 386 kts | 212° |
| 2026-05-04 10:04 | 51.64514 | 1.89560 | 21007 ft | 381 kts | 225° |
| 2026-05-04 10:04 | 51.62744 | 1.86406 | 20362 ft | 379 kts | 229° |
| 2026-05-04 10:05 | 51.61008 | 1.83224 | 19754 ft | 377 kts | 229° |
| 2026-05-04 10:05 | 51.59286 | 1.80066 | 19157 ft | 375 kts | 229° |
| 2026-05-04 10:05 | 51.57566 | 1.76922 | 18571 ft | 373 kts | 229° |
| 2026-05-04 10:05 | 51.55850 | 1.73799 | 17971 ft | 371 kts | 228° |
| 2026-05-04 10:06 | 51.54143 | 1.70709 | 17372 ft | 369 kts | 228° |
| 2026-05-04 10:06 | 51.52442 | 1.67636 | 16796 ft | 366 kts | 228° |
| 2026-05-04 10:06 | 51.50754 | 1.64581 | 16240 ft | 364 kts | 229° |
| 2026-05-04 10:08 | 51.44682 | 1.42892 | 14017 ft | 345 kts | 249° |
| 2026-05-04 10:08 | 51.43773 | 1.39406 | 14027 ft | 336 kts | 240° |
| 2026-05-04 10:08 | 51.42385 | 1.36432 | 14027 ft | 333 kts | 225° |
| 2026-05-04 10:08 | 51.40584 | 1.34104 | 14031 ft | 333 kts | 217° |
| 2026-05-04 10:09 | 51.38739 | 1.31928 | 14031 ft | 333 kts | 217° |
| 2026-05-04 10:09 | 51.36851 | 1.29692 | 14030 ft | 333 kts | 217° |
| 2026-05-04 10:09 | 51.35011 | 1.27511 | 14026 ft | 333 kts | 217° |
| 2026-05-04 10:09 | 51.33126 | 1.25272 | 14026 ft | 333 kts | 217° |
| 2026-05-04 10:10 | 51.31266 | 1.23065 | 14026 ft | 333 kts | 217° |
| 2026-05-04 10:10 | 51.29409 | 1.20869 | 14026 ft | 329 kts | 217° |
| 2026-05-04 10:10 | 51.27631 | 1.18779 | 14025 ft | 314 kts | 217° |
| 2026-05-04 10:10 | 51.25889 | 1.16737 | 14024 ft | 310 kts | 217° |
| 2026-05-04 10:11 | 51.24155 | 1.14701 | 14027 ft | 309 kts | 217° |
| 2026-05-04 10:11 | 51.22425 | 1.12668 | 14027 ft | 309 kts | 217° |
| 2026-05-04 10:11 | 51.20695 | 1.10637 | 14027 ft | 309 kts | 216° |
| 2026-05-04 10:11 | 51.18966 | 1.08611 | 14028 ft | 309 kts | 216° |
| 2026-05-04 10:12 | 51.17239 | 1.06586 | 14027 ft | 308 kts | 216° |
| 2026-05-04 10:12 | 51.15509 | 1.04557 | 14026 ft | 308 kts | 216° |
| 2026-05-04 10:12 | 51.13781 | 1.02535 | 14028 ft | 308 kts | 216° |
| 2026-05-04 10:12 | 51.12050 | 1.00519 | 14022 ft | 308 kts | 216° |
| 2026-05-04 10:13 | 51.10327 | 0.98515 | 13687 ft | 307 kts | 216° |
| 2026-05-04 10:13 | 51.08610 | 0.96520 | 13285 ft | 306 kts | 216° |
| 2026-05-04 10:13 | 51.06906 | 0.94505 | 12914 ft | 304 kts | 220° |
| 2026-05-04 10:13 | 51.05488 | 0.92042 | 12538 ft | 302 kts | 235° |
| 2026-05-04 10:14 | 51.04501 | 0.89108 | 12147 ft | 301 kts | 244° |
| 2026-05-04 10:14 | 51.03614 | 0.86103 | 11765 ft | 300 kts | 244° |
| 2026-05-04 10:16 | 50.97922 | 0.67068 | 9701 ft | 279 kts | 244° |
| 2026-05-04 10:16 | 50.97089 | 0.64295 | 9313 ft | 278 kts | 244° |
| 2026-05-04 10:16 | 50.96259 | 0.61541 | 8929 ft | 276 kts | 244° |
| 2026-05-04 10:16 | 50.95432 | 0.58796 | 8540 ft | 275 kts | 244° |
| 2026-05-04 10:17 | 50.94606 | 0.56072 | 8149 ft | 273 kts | 244° |
| 2026-05-04 10:17 | 50.93784 | 0.53363 | 7744 ft | 272 kts | 244° |
| 2026-05-04 10:19 | 50.93218 | 0.33471 | 7014 ft | 274 kts | 285° |
| 2026-05-04 10:19 | 50.93752 | 0.30563 | 7011 ft | 274 kts | 285° |
| 2026-05-04 10:19 | 50.94286 | 0.27681 | 6752 ft | 271 kts | 287° |
| 2026-05-04 10:19 | 50.95129 | 0.25019 | 6343 ft | 272 kts | 305° |
| 2026-05-04 10:20 | 50.96293 | 0.22655 | 5919 ft | 271 kts | 307° |
| 2026-05-04 10:20 | 50.97449 | 0.20317 | 5507 ft | 269 kts | 307° |
| 2026-05-04 10:20 | 50.98597 | 0.17986 | 5114 ft | 267 kts | 307° |
| 2026-05-04 10:20 | 50.99735 | 0.15664 | 4712 ft | 266 kts | 307° |
| 2026-05-04 10:21 | 51.00863 | 0.13346 | 4313 ft | 264 kts | 305° |
| 2026-05-04 10:21 | 51.01647 | 0.10802 | 4147 ft | 251 kts | 284° |
| 2026-05-04 10:21 | 51.01867 | 0.08140 | 4033 ft | 238 kts | 273° |
| 2026-05-04 10:21 | 51.01978 | 0.05557 | 3999 ft | 232 kts | 273° |
| 2026-05-04 10:22 | 51.02200 | 0.00457 | 4006 ft | 231 kts | 273° |
| 2026-05-04 10:22 | 51.02310 | -0.02096 | 4005 ft | 231 kts | 273° |
| 2026-05-04 10:22 | 51.02421 | -0.04647 | 4003 ft | 231 kts | 273° |
| 2026-05-04 10:23 | 51.02529 | -0.07193 | 4008 ft | 231 kts | 273° |
| 2026-05-04 10:23 | 51.02636 | -0.09742 | 4007 ft | 231 kts | 273° |
| 2026-05-04 10:25 | 51.03327 | -0.26400 | 3007 ft | 211 kts | 273° |
| 2026-05-04 10:25 | 51.03420 | -0.28727 | 3005 ft | 211 kts | 273° |
| 2026-05-04 10:25 | 51.03513 | -0.31051 | 3009 ft | 211 kts | 273° |
| 2026-05-04 10:25 | 51.03606 | -0.33334 | 3006 ft | 208 kts | 273° |
| 2026-05-04 10:26 | 51.03697 | -0.35563 | 3003 ft | 198 kts | 273° |
| 2026-05-04 10:26 | 51.03784 | -0.37715 | 3005 ft | 193 kts | 273° |
| 2026-05-04 10:26 | 51.03874 | -0.39835 | 3005 ft | 192 kts | 275° |
| 2026-05-04 10:26 | 51.04286 | -0.41814 | 3002 ft | 191 kts | 309° |
| 2026-05-04 10:27 | 51.05353 | -0.42985 | 3012 ft | 192 kts | 341° |
| 2026-05-04 10:27 | 51.06664 | -0.43261 | 2886 ft | 191 kts | 8° |
| 2026-05-04 10:27 | 51.07881 | -0.42485 | 2690 ft | 190 kts | 35° |
| 2026-05-04 10:27 | 51.08926 | -0.41190 | 2482 ft | 191 kts | 40° |
| 2026-05-04 10:28 | 51.09912 | -0.39842 | 2361 ft | 180 kts | 41° |
| 2026-05-04 10:28 | 51.10816 | -0.38587 | 2179 ft | 166 kts | 41° |
| 2026-05-04 10:28 | 51.11680 | -0.37386 | 2024 ft | 165 kts | 41° |
| 2026-05-04 10:28 | 51.12400 | -0.35984 | 1993 ft | 165 kts | 65° |
| 2026-05-04 10:29 | 51.12710 | -0.34224 | 1941 ft | 166 kts | 78° |
| 2026-05-04 10:29 | 51.12956 | -0.32434 | 1780 ft | 165 kts | 78° |
| 2026-05-04 10:29 | 51.13203 | -0.30645 | 1558 ft | 165 kts | 77° |
| 2026-05-04 10:29 | 51.13447 | -0.28892 | 1343 ft | 160 kts | 77° |
| 2026-05-04 10:30 | 51.13682 | -0.27199 | 1102 ft | 153 kts | 77° |
| 2026-05-04 10:30 | 51.13905 | -0.25593 | 884 ft | 145 kts | 76° |
| 2026-05-04 10:30 | 51.14120 | -0.24042 | 681 ft | 142 kts | 76° |
| 2026-05-04 10:30 | 51.14330 | -0.22525 | 479 ft | 139 kts | 76° |
| 2026-05-04 10:31 | 51.14530 | -0.21031 | 307 ft | 137 kts | 76° |
| 2026-05-04 10:31 | 51.14736 | -0.19579 | 210 ft | 126 kts | 77° |
| 2026-05-04 10:32 | 51.15192 | -0.17767 | 205 ft | 10 kts | 353° |
| 2026-05-04 10:33 | 51.15253 | -0.17747 | 214 ft | 9 kts | 56° |
| 2026-05-04 10:33 | 51.15271 | -0.17634 | 205 ft | 12 kts | 78° |
| 2026-05-04 10:33 | 51.15289 | -0.17493 | 213 ft | 12 kts | 79° |
| 2026-05-04 10:33 | 51.15301 | -0.17397 | 208 ft | 7 kts | 73° |
| 2026-05-04 10:34 | 51.15336 | -0.17362 | 207 ft | 7 kts | 358° |
| 2026-05-04 10:34 | 51.15380 | -0.17375 | 205 ft | 6 kts | 348° |
| 2026-05-04 10:34 | 51.15432 | -0.17393 | 206 ft | 10 kts | 347° |
| 2026-05-04 10:34 | 51.15504 | -0.17419 | 205 ft | 11 kts | 348° |
| 2026-05-04 10:35 | 51.15590 | -0.17449 | 211 ft | 14 kts | 346° |
| 2026-05-04 10:35 | 51.15667 | -0.17476 | 212 ft | 2 kts | 348° |
| 2026-05-04 10:35 | 51.15677 | -0.17479 | 214 ft | 2 kts | 348° |
| 2026-05-04 10:35 | 51.15714 | -0.17493 | 205 ft | 6 kts | 347° |
| 2026-05-04 10:36 | 51.15750 | -0.17488 | 205 ft | 5 kts | 25° |
| 2026-05-04 10:36 | 51.15765 | -0.17451 | 207 ft | 5 kts | 73° |
| 2026-05-04 10:36 | 51.15780 | -0.17345 | 210 ft | 11 kts | 77° |
| 2026-05-04 10:36 | 51.15794 | -0.17250 | 209 ft | 7 kts | 76° |
| 2026-05-04 10:37 | 51.15827 | -0.17227 | 207 ft | 5 kts | 353° |
| 2026-05-04 10:37 | 51.15856 | -0.17236 | 205 ft | 3 kts | 348° |
| 2026-05-04 10:37 | 51.15877 | -0.17243 | 205 ft | 3 kts | 347° |
| 2026-05-04 10:37 | 51.15882 | -0.17245 | 205 ft | 0 kts | 347° |
| 2026-05-04 10:39 | 51.15883 | -0.17245 | 205 ft | 0 kts | 347° |